Time;durP1;ratioP1;P1;durP2;ratioP2;P2;SDS_P1;SDS_P2;PMS_P1;PMS_P2;Temp;Humidity;BMP_temperature;BMP_pressure;BME280_temperature;BME280_humidity;BME280_pressure;Samples;Min_cycle;Max_cycle;Signal;HPM_P1;HPM_P2
2021/03/02 00:00:12;;;;;;;3.92;0.50;;;24.10;6.70;;;;;;5101696;28;20176;-66
2021/03/02 00:02:42;;;;;;;0.80;0.50;;;24.10;6.80;;;;;;5098952;28;20073;-67
2021/03/02 00:05:10;;;;;;;2.22;0.47;;;24.10;7.10;;;;;;5098550;28;20077;-67
2021/03/02 00:07:37;;;;;;;1.77;0.50;;;24.10;7.10;;;;;;5098521;28;20130;-67
2021/03/02 00:10:09;;;;;;;2.03;1.02;;;24.10;7.10;;;;;;5103178;28;20134;-67
2021/03/02 00:12:37;;;;;;;1.38;0.57;;;24.10;7.10;;;;;;5101684;28;20596;-67
2021/03/02 00:15:05;;;;;;;3.85;0.70;;;24.10;7.60;;;;;;5096483;28;20180;-66
2021/03/02 00:17:42;;;;;;;1.23;0.52;;;24.10;7.70;;;;;;5101517;28;20105;-66
2021/03/02 00:20:12;;;;;;;1.33;0.55;;;24.00;7.70;;;;;;5099262;28;20475;-68
2021/03/02 00:23:14;;;;;;;2.47;1.00;;;23.90;7.50;;;;;;5098991;28;20072;-66
2021/03/02 00:25:44;;;;;;;26.02;1.30;;;23.80;7.40;;;;;;5099067;28;20107;-66
2021/03/02 00:28:11;;;;;;;3.08;0.80;;;23.90;8.20;;;;;;5090617;28;20091;-66
2021/03/02 00:30:39;;;;;;;4.28;0.70;;;24.00;7.20;;;;;;5097778;28;20068;-66
2021/03/02 00:33:07;;;;;;;1.50;0.60;;;23.90;7.40;;;;;;5099862;28;20111;-65
2021/03/02 00:35:33;;;;;;;4.63;0.60;;;23.90;7.20;;;;;;5094462;28;20084;-66
2021/03/02 00:38:00;;;;;;;0.85;0.55;;;23.90;7.50;;;;;;5095159;28;20086;-65
2021/03/02 00:40:27;;;;;;;1.98;0.60;;;23.90;7.60;;;;;;5096591;28;20186;-65
2021/03/02 00:42:54;;;;;;;2.40;0.60;;;24.20;7.90;;;;;;5096110;28;20084;-66
2021/03/02 00:45:21;;;;;;;3.25;0.60;;;25.10;6.60;;;;;;5095163;28;20529;-65
2021/03/02 00:47:52;;;;;;;4.07;0.60;;;24.70;7.10;;;;;;5094502;28;20617;-66
2021/03/02 00:50:21;;;;;;;1.60;0.90;;;24.20;7.30;;;;;;5094830;28;20067;-66
2021/03/02 00:52:47;;;;;;;0.73;0.70;;;23.80;7.70;;;;;;5100145;28;20099;-66
2021/03/02 00:55:14;;;;;;;1.58;0.60;;;23.60;7.50;;;;;;5100235;28;20091;-64
2021/03/02 00:57:41;;;;;;;1.20;0.60;;;23.40;8.00;;;;;;5098373;28;20503;-65
2021/03/02 01:00:08;;;;;;;2.60;0.73;;;23.20;8.30;;;;;;5092180;28;20073;-65
2021/03/02 01:02:36;;;;;;;3.15;0.88;;;22.90;8.20;;;;;;5092028;28;20061;-66
2021/03/02 01:05:04;;;;;;;2.67;1.30;;;22.60;8.70;;;;;;5098066;28;20092;-65
2021/03/02 01:07:31;;;;;;;3.17;1.27;;;22.50;8.60;;;;;;5097140;28;20064;-66
2021/03/02 01:10:01;;;;;;;6.78;1.80;;;22.30;9.00;;;;;;5093418;28;20072;-65
2021/03/02 01:12:28;;;;;;;3.75;1.10;;;22.10;9.10;;;;;;5096629;28;20136;-65
2021/03/02 01:14:56;;;;;;;6.22;1.20;;;22.00;8.90;;;;;;5093687;28;20085;-65
2021/03/02 01:17:23;;;;;;;2.40;1.00;;;21.80;9.30;;;;;;5097629;28;20107;-65
2021/03/02 01:19:50;;;;;;;5.03;1.00;;;21.60;8.90;;;;;;5097958;28;20076;-66
2021/03/02 01:22:17;;;;;;;2.17;1.05;;;21.50;8.90;;;;;;5094978;28;20072;-66
2021/03/02 01:24:44;;;;;;;7.00;1.08;;;21.40;9.30;;;;;;5101163;28;20134;-66
2021/03/02 01:27:10;;;;;;;8.18;0.88;;;21.30;9.80;;;;;;5097830;28;20589;-66
2021/03/02 01:29:37;;;;;;;2.70;0.73;;;21.10;10.50;;;;;;5103459;28;20076;-67
2021/03/02 01:32:04;;;;;;;5.30;1.27;;;21.00;10.90;;;;;;5094207;28;20100;-66
2021/03/02 01:34:32;;;;;;;5.35;0.82;;;20.80;9.80;;;;;;5098943;28;20080;-66
2021/03/02 01:36:59;;;;;;;2.03;0.77;;;20.70;9.80;;;;;;5100009;28;20155;-67
2021/03/02 01:39:26;;;;;;;8.52;1.25;;;20.50;10.20;;;;;;5098631;28;20077;-66
2021/03/02 01:41:54;;;;;;;8.93;1.95;;;20.40;10.30;;;;;;5099074;28;20072;-66
2021/03/02 01:44:21;;;;;;;5.15;1.65;;;20.30;11.00;;;;;;5099517;28;20122;-67
2021/03/02 01:46:50;;;;;;;5.55;1.67;;;20.20;11.60;;;;;;5097683;28;20126;-67
2021/03/02 01:49:20;;;;;;;11.57;1.70;;;20.00;12.40;;;;;;5094700;28;20087;-66
2021/03/02 01:51:47;;;;;;;4.82;1.65;;;19.90;12.80;;;;;;5095942;28;20103;-66
2021/03/02 01:54:15;;;;;;;8.20;2.28;;;19.70;13.10;;;;;;5097254;28;20113;-67
2021/03/02 01:56:42;;;;;;;8.27;2.03;;;19.60;13.70;;;;;;5096655;28;20068;-67
2021/03/02 01:59:08;;;;;;;12.40;2.13;;;19.40;14.10;;;;;;5093447;28;20167;-67
2021/03/02 02:01:36;;;;;;;13.55;2.03;;;19.20;14.10;;;;;;5096979;28;20428;-67
2021/03/02 02:04:12;;;;;;;9.93;2.20;;;19.10;14.60;;;;;;5096035;28;20084;-66
2021/03/02 02:06:52;;;;;;;7.72;1.50;;;19.00;14.50;;;;;;5094473;28;20121;-67
2021/03/02 02:09:21;;;;;;;11.63;1.90;;;18.90;14.70;;;;;;5095971;28;20091;-67
2021/03/02 02:11:54;;;;;;;13.90;2.17;;;18.80;14.60;;;;;;5099759;28;20112;-67
2021/03/02 02:14:24;;;;;;;17.10;2.20;;;18.60;14.90;;;;;;5101897;28;20552;-66
2021/03/02 02:16:56;;;;;;;13.88;2.38;;;18.40;15.30;;;;;;5096064;28;20107;-67
2021/03/02 02:19:44;;;;;;;18.48;3.13;;;18.40;16.10;;;;;;5098049;28;20606;-66
2021/03/02 02:22:27;;;;;;;25.00;3.35;;;18.30;16.00;;;;;;5096647;28;20079;-66
2021/03/02 02:25:18;;;;;;;21.77;3.10;;;18.10;16.30;;;;;;5093455;28;20095;-67
2021/03/02 02:27:50;;;;;;;21.50;3.53;;;18.00;15.60;;;;;;5092959;28;20072;-67
2021/03/02 02:30:17;;;;;;;21.80;3.25;;;17.90;15.80;;;;;;5090471;28;20065;-67
2021/03/02 02:32:46;;;;;;;17.10;3.25;;;17.90;16.10;;;;;;5092541;28;20165;-67
2021/03/02 02:35:14;;;;;;;28.02;3.60;;;17.80;17.10;;;;;;5096901;28;20596;-66
2021/03/02 02:37:43;;;;;;;28.05;4.30;;;17.70;16.80;;;;;;5092938;28;20154;-67
2021/03/02 02:40:13;;;;;;;32.10;5.10;;;17.60;17.30;;;;;;5091421;28;20083;-68
2021/03/02 02:42:45;;;;;;;24.55;5.10;;;17.60;17.30;;;;;;5095136;28;20570;-67
2021/03/02 02:45:13;;;;;;;23.60;4.72;;;17.50;17.10;;;;;;5094502;28;20225;-68
2021/03/02 02:47:40;;;;;;;27.75;5.60;;;17.50;17.80;;;;;;5097857;28;20103;-67
2021/03/02 02:50:08;;;;;;;24.58;4.88;;;17.40;17.90;;;;;;5094590;28;20575;-68
2021/03/02 02:52:35;;;;;;;26.67;5.85;;;17.30;18.90;;;;;;5097759;28;20092;-68
2021/03/02 02:55:04;;;;;;;32.72;8.88;;;17.20;18.20;;;;;;5096687;28;20068;-68
2021/03/02 02:57:37;;;;;;;35.88;10.93;;;17.10;18.10;;;;;;5096493;28;20159;-68
2021/03/02 03:00:04;;;;;;;38.55;10.50;;;17.10;18.60;;;;;;5093846;28;20093;-68
2021/03/02 03:02:34;;;;;;;33.90;9.15;;;17.00;19.00;;;;;;5096009;28;20125;-69
2021/03/02 03:05:09;;;;;;;32.05;8.65;;;17.00;19.40;;;;;;5095293;28;20076;-68
2021/03/02 03:07:46;;;;;;;23.95;7.25;;;16.90;19.30;;;;;;5098537;28;20068;-71
2021/03/02 03:10:14;;;;;;;31.23;6.95;;;16.90;18.50;;;;;;5092057;28;20076;-68
2021/03/02 03:12:45;;;;;;;36.58;6.53;;;16.80;18.60;;;;;;5092916;28;20625;-69
2021/03/02 03:15:17;;;;;;;29.70;6.28;;;16.80;19.30;;;;;;5095804;28;20557;-69
2021/03/02 03:17:49;;;;;;;34.22;6.13;;;16.70;19.50;;;;;;5094385;28;20535;-68
2021/03/02 03:20:16;;;;;;;32.97;6.13;;;16.60;19.40;;;;;;5090521;28;20104;-69
2021/03/02 03:22:43;;;;;;;32.15;5.47;;;16.60;19.60;;;;;;5099167;28;20105;-69
2021/03/02 03:25:12;;;;;;;38.22;5.53;;;16.60;19.80;;;;;;5087860;28;20511;-68
2021/03/02 03:27:46;;;;;;;28.98;5.57;;;16.60;19.70;;;;;;5096094;28;20480;-68
2021/03/02 03:30:14;;;;;;;44.25;5.55;;;16.50;19.60;;;;;;5091689;28;20068;-68
2021/03/02 03:32:46;;;;;;;32.50;5.32;;;16.50;19.50;;;;;;5094988;28;20092;-70
2021/03/02 03:35:13;;;;;;;27.67;5.70;;;16.60;20.10;;;;;;5090824;28;20083;-68
2021/03/02 03:37:40;;;;;;;24.65;6.13;;;16.50;19.80;;;;;;5091669;28;20105;-68
2021/03/02 03:40:08;;;;;;;25.95;5.32;;;16.40;19.70;;;;;;5101935;28;20099;-68
2021/03/02 03:42:34;;;;;;;29.23;5.03;;;16.40;20.10;;;;;;5093658;28;20215;-68
2021/03/02 03:45:00;;;;;;;;;;;16.40;20.50;;;;;;5093743;28;20069;-68
2021/03/02 03:47:28;;;;;;;22.13;5.32;;;16.30;20.50;;;;;;5096475;28;19970;-68
2021/03/02 03:49:54;;;;;;;25.00;5.13;;;16.20;21.20;;;;;;5099563;28;20269;-70
2021/03/02 03:52:21;;;;;;;29.35;5.15;;;16.10;21.50;;;;;;5095643;28;20148;-68
2021/03/02 03:54:50;;;;;;;36.17;6.35;;;16.10;21.40;;;;;;5096766;28;20402;-68
2021/03/02 03:57:17;;;;;;;34.67;5.35;;;16.00;22.00;;;;;;5093108;28;20071;-69
2021/03/02 03:59:44;;;;;;;31.85;6.38;;;15.90;21.80;;;;;;5102138;28;20076;-70
2021/03/02 04:02:11;;;;;;;32.03;5.88;;;15.90;21.90;;;;;;5095458;28;20076;-68
2021/03/02 04:04:37;;;;;;;;;;;15.80;22.50;;;;;;5098925;28;20073;-68
2021/03/02 04:07:05;;;;;;;27.95;5.80;;;15.70;22.80;;;;;;5093068;28;19967;-67
2021/03/02 04:09:33;;;;;;;23.50;5.72;;;15.60;22.50;;;;;;5089047;28;20073;-69
2021/03/02 04:12:00;;;;;;;23.10;5.85;;;15.60;22.40;;;;;;5095243;28;20132;-70
2021/03/02 04:14:32;;;;;;;33.13;6.00;;;15.50;22.60;;;;;;5093713;28;20084;-67
2021/03/02 04:16:58;;;;;;;30.45;6.05;;;15.50;22.90;;;;;;5103023;28;20401;-70
2021/03/02 04:19:24;;;;;;;;;;;15.40;23.10;;;;;;5100318;28;20068;-69
2021/03/02 04:21:51;;;;;;;27.13;6.55;;;15.40;23.50;;;;;;5102073;28;20065;-69
2021/03/02 04:24:17;;;;;;;;;;;15.30;23.90;;;;;;5097578;28;20084;-69
2021/03/02 04:26:44;;;;;;;34.83;6.75;;;15.30;23.90;;;;;;5100122;28;19968;-67
2021/03/02 04:29:10;;;;;;;30.65;8.40;;;15.20;23.80;;;;;;5097827;28;20130;-68
2021/03/02 04:31:36;;;;;;;;;;;15.10;24.50;;;;;;5102269;27;20208;-68
2021/03/02 04:34:03;;;;;;;37.70;7.97;;;15.10;23.70;;;;;;5098158;28;20425;-69
2021/03/02 04:36:31;;;;;;;37.05;7.78;;;15.10;23.90;;;;;;5112575;27;20164;-68
2021/03/02 04:38:57;;;;;;;30.67;10.38;;;15.10;23.90;;;;;;5096928;28;20479;-68
2021/03/02 04:41:23;;;;;;;;;;;15.00;23.20;;;;;;5101571;28;20133;-70
2021/03/02 04:43:50;;;;;;;34.88;10.63;;;14.90;23.60;;;;;;5099058;28;19956;-68
2021/03/02 04:46:19;;;;;;;33.58;9.57;;;14.90;24.20;;;;;;5095646;28;20617;-69
2021/03/02 04:48:46;;;;;;;32.15;9.90;;;14.80;24.40;;;;;;5099520;28;20073;-69
2021/03/02 04:51:14;;;;;;;27.75;7.90;;;14.80;24.00;;;;;;5099894;28;20072;-68
2021/03/02 04:53:41;;;;;;;39.78;8.95;;;14.80;24.20;;;;;;5104506;28;20096;-69
2021/03/02 04:56:07;;;;;;;43.08;8.73;;;14.70;24.30;;;;;;5114372;27;20073;-69
2021/03/02 04:58:34;;;;;;;36.80;8.30;;;14.70;24.20;;;;;;5096831;28;20084;-69
2021/03/02 05:01:00;;;;;;;37.72;7.35;;;14.60;23.70;;;;;;5099108;28;20167;-68
2021/03/02 05:03:27;;;;;;;29.60;7.07;;;14.60;24.10;;;;;;5096388;28;20547;-67
2021/03/02 05:05:54;;;;;;;39.95;7.05;;;14.60;24.30;;;;;;5097841;28;20168;-67
2021/03/02 05:08:20;;;;;;;;;;;14.60;24.50;;;;;;5099814;27;20533;-68
2021/03/02 05:10:46;;;;;;;33.72;7.22;;;14.60;24.50;;;;;;5098812;27;20447;-67
2021/03/02 05:13:12;;;;;;;;;;;14.60;24.90;;;;;;5093357;28;20120;-70
2021/03/02 05:15:39;;;;;;;40.83;6.57;;;14.60;25.00;;;;;;5092817;28;19968;-68
2021/03/02 05:18:06;;;;;;;28.42;6.57;;;14.50;24.60;;;;;;5094880;28;20076;-68
2021/03/02 05:20:34;;;;;;;32.35;5.88;;;14.50;24.80;;;;;;5101217;28;20096;-68
2021/03/02 05:23:00;;;;;;;40.88;6.60;;;14.40;24.80;;;;;;5096126;28;20109;-67
2021/03/02 05:25:26;;;;;;;;;;;14.40;24.80;;;;;;5098633;28;20072;-68
2021/03/02 05:27:53;;;;;;;37.40;5.53;;;14.40;25.20;;;;;;5101239;28;19964;-68
2021/03/02 05:30:20;;;;;;;30.60;6.28;;;14.40;25.40;;;;;;5095771;28;20123;-68
2021/03/02 05:32:47;;;;;;;29.90;5.40;;;14.30;25.40;;;;;;5096910;28;20175;-67
2021/03/02 05:35:13;;;;;;;22.55;4.93;;;14.30;25.40;;;;;;5094234;28;20077;-67
2021/03/02 05:37:42;;;;;;;27.27;5.72;;;14.20;25.50;;;;;;5097182;28;20101;-69
2021/03/02 05:40:09;;;;;;;32.65;5.80;;;14.10;25.90;;;;;;5095450;28;20102;-67
2021/03/02 05:42:36;;;;;;;58.03;18.92;;;14.10;26.00;;;;;;5098865;28;20072;-67
2021/03/02 05:45:05;;;;;;;;;;;14.00;26.10;;;;;;5101165;28;20068;-68
2021/03/02 05:47:35;;;;;;;26.27;6.90;;;14.00;26.00;;;;;;5096770;28;19964;-68
2021/03/02 05:50:03;;;;;;;38.03;9.48;;;13.90;26.20;;;;;;5095165;28;20076;-67
2021/03/02 05:52:31;;;;;;;65.78;15.95;;;13.90;26.20;;;;;;5097775;28;20092;-67
2021/03/02 05:55:03;;;;;;;78.75;22.10;;;13.80;26.20;;;;;;5100243;28;20118;-67
2021/03/02 05:57:33;;;;;;;104.82;31.38;;;13.80;26.40;;;;;;5091366;28;20474;-68
2021/03/02 06:00:04;;;;;;;108.00;35.67;;;13.70;26.70;;;;;;5097469;28;20072;-66
2021/03/02 06:02:30;;;;;;;109.95;36.35;;;13.70;26.70;;;;;;5094409;28;20122;-64
2021/03/02 06:04:57;;;;;;;;;;;13.70;27.40;;;;;;5092616;28;20065;-65
2021/03/02 06:07:23;;;;;;;97.13;31.15;;;13.70;27.00;;;;;;5091478;28;20062;-66
2021/03/02 06:09:50;;;;;;;;;;;13.60;27.00;;;;;;5101937;28;20083;-67
2021/03/02 06:12:17;;;;;;;56.45;14.98;;;13.50;26.70;;;;;;5100117;28;19992;-66
2021/03/02 06:14:44;;;;;;;38.38;10.57;;;13.40;27.00;;;;;;5095347;28;20064;-65
2021/03/02 06:17:11;;;;;;;36.35;9.75;;;13.40;27.20;;;;;;5093141;28;20533;-64
2021/03/02 06:19:40;;;;;;;;;;;13.30;27.00;;;;;;5093824;28;20125;-65
2021/03/02 06:22:25;;;;;;;42.88;7.47;;;13.30;27.30;;;;;;5096510;28;20006;-65
2021/03/02 06:24:52;;;;;;;32.92;8.38;;;13.30;27.40;;;;;;5095007;28;20463;-64
2021/03/02 06:27:18;;;;;;;;;;;13.30;28.30;;;;;;5095144;28;20529;-67
2021/03/02 06:30:15;;;;;;;93.50;44.78;;;13.20;28.00;;;;;;5092750;28;20007;-67
2021/03/02 06:32:51;;;;;;;109.55;51.90;;;13.20;27.60;;;;;;5097025;28;20103;-66
2021/03/02 06:35:34;;;;;;;128.93;63.80;;;13.20;28.30;;;;;;5096914;28;20118;-68
2021/03/02 06:38:02;;;;;;;124.13;60.30;;;13.20;28.20;;;;;;5095331;28;20076;-68
2021/03/02 06:40:42;;;;;;;103.60;44.58;;;13.10;28.50;;;;;;5095098;28;20546;-67
2021/03/02 06:43:28;;;;;;;46.78;19.55;;;13.10;28.80;;;;;;5096352;28;20645;-67
2021/03/02 06:45:54;;;;;;;36.75;14.25;;;13.00;29.00;;;;;;5093761;28;20259;-66
2021/03/02 06:48:21;;;;;;;26.70;10.07;;;13.00;29.20;;;;;;5094232;28;20069;-67
2021/03/02 06:50:47;;;;;;;;;;;12.90;28.80;;;;;;5096293;28;20080;-66
2021/03/02 06:53:14;;;;;;;35.30;6.70;;;13.00;28.90;;;;;;5091875;28;19991;-66
2021/03/02 06:55:43;;;;;;;30.88;6.00;;;13.00;29.10;;;;;;5094512;28;20069;-67
2021/03/02 06:58:23;;;;;;;21.10;6.03;;;12.90;29.30;;;;;;5103088;28;20080;-66
2021/03/02 07:00:53;;;;;;;24.38;6.10;;;12.90;29.30;;;;;;5096566;28;20215;-67
2021/03/02 07:03:34;;;;;;;43.20;7.57;;;12.80;28.50;;;;;;5092441;28;20083;-67
2021/03/02 07:06:04;;;;;;;27.35;7.10;;;12.80;28.70;;;;;;5094167;28;20068;-68
2021/03/02 07:08:32;;;;;;;31.67;7.78;;;12.80;29.00;;;;;;5097090;28;20084;-67
2021/03/02 07:11:00;;;;;;;27.17;7.22;;;12.70;28.70;;;;;;5095241;28;20080;-67
2021/03/02 07:13:31;;;;;;;31.42;7.40;;;12.70;28.60;;;;;;5093395;28;20104;-67
2021/03/02 07:15:58;;;;;;;35.60;9.43;;;12.60;29.10;;;;;;5089428;28;20068;-67
2021/03/02 07:18:29;;;;;;;39.42;10.73;;;12.60;29.30;;;;;;5089729;28;20122;-66
2021/03/02 07:21:01;;;;;;;36.53;8.80;;;12.60;28.90;;;;;;5091768;28;20078;-67
2021/03/02 07:23:33;;;;;;;37.10;9.63;;;12.60;29.00;;;;;;5093984;28;20163;-66
2021/03/02 07:26:02;;;;;;;43.88;9.88;;;12.70;28.70;;;;;;5093177;28;20065;-66
2021/03/02 07:28:35;;;;;;;36.63;8.30;;;12.60;28.10;;;;;;5090858;28;20130;-66
2021/03/02 07:31:02;;;;;;;31.05;7.47;;;12.60;28.00;;;;;;5091552;28;20154;-66
2021/03/02 07:33:29;;;;;;;37.22;7.43;;;12.60;28.00;;;;;;5088494;28;20553;-66
2021/03/02 07:35:57;;;;;;;27.67;6.50;;;12.60;27.80;;;;;;5090406;28;20540;-66
2021/03/02 07:38:25;;;;;;;30.15;7.10;;;12.60;27.70;;;;;;5093206;28;20228;-66
2021/03/02 07:40:56;;;;;;;37.00;7.35;;;12.60;27.70;;;;;;5093795;28;20076;-67
2021/03/02 07:43:52;;;;;;;28.05;7.03;;;12.60;28.00;;;;;;5089972;28;20199;-66
2021/03/02 07:46:38;;;;;;;23.30;6.35;;;12.60;27.70;;;;;;5092030;28;20593;-66
2021/03/02 07:49:31;;;;;;;25.05;6.28;;;12.60;27.70;;;;;;5096263;28;20469;-70
2021/03/02 07:52:01;;;;;;;28.42;6.18;;;12.50;28.10;;;;;;5094181;28;20088;-67
2021/03/02 07:54:29;;;;;;;22.80;5.07;;;12.50;28.30;;;;;;5099087;28;20084;-67
2021/03/02 07:57:13;;;;;;;22.77;5.25;;;12.50;27.90;;;;;;5098205;28;20065;-67
2021/03/02 08:00:00;;;;;;;24.38;5.30;;;12.40;28.20;;;;;;5097299;28;20432;-69
2021/03/02 08:02:27;;;;;;;17.07;3.70;;;12.40;27.60;;;;;;5085840;28;20096;-66
2021/03/02 08:04:55;;;;;;;16.63;3.47;;;12.40;27.10;;;;;;5092302;28;20490;-67
2021/03/02 08:07:27;;;;;;;11.13;3.33;;;12.30;26.60;;;;;;5099558;28;20064;-67
2021/03/02 08:10:31;;;;;;;13.13;3.05;;;12.30;26.20;;;;;;5100082;28;20076;-66
2021/03/02 08:13:34;;;;;;;19.90;2.92;;;12.20;25.70;;;;;;5095396;28;20210;-66
2021/03/02 08:16:08;;;;;;;6.10;2.47;;;12.20;25.40;;;;;;5096047;28;20165;-67
2021/03/02 08:18:37;;;;;;;6.68;2.28;;;12.20;25.50;;;;;;5094307;28;20478;-66
2021/03/02 08:21:22;;;;;;;9.65;2.80;;;12.20;25.70;;;;;;5096929;28;20784;-66
2021/03/02 08:23:58;;;;;;;10.18;2.20;;;12.20;24.80;;;;;;5097633;28;20068;-66
2021/03/02 08:26:34;;;;;;;12.73;2.38;;;12.20;24.50;;;;;;5097697;28;20071;-66
2021/03/02 08:29:12;;;;;;;9.27;2.35;;;12.10;23.90;;;;;;5095058;28;20118;-67
2021/03/02 08:31:41;;;;;;;6.45;1.88;;;12.20;23.30;;;;;;5093089;28;20517;-68
2021/03/02 08:34:09;;;;;;;6.20;1.83;;;12.20;22.80;;;;;;5096233;28;20100;-67
2021/03/02 08:36:37;;;;;;;10.63;1.70;;;12.20;22.30;;;;;;5099695;28;20146;-67
2021/03/02 08:39:15;;;;;;;13.98;2.22;;;12.20;22.60;;;;;;5099274;28;20073;-67
2021/03/02 08:41:43;;;;;;;11.65;1.90;;;12.20;21.90;;;;;;5103075;28;20064;-68
2021/03/02 08:44:23;;;;;;;11.95;2.13;;;12.20;21.40;;;;;;5097707;28;20083;-68
2021/03/02 08:47:01;;;;;;;7.13;1.95;;;12.30;21.60;;;;;;5092737;28;20073;-67
2021/03/02 08:49:28;;;;;;;7.35;2.47;;;12.30;21.60;;;;;;5094731;28;20115;-67
2021/03/02 08:52:01;;;;;;;15.88;2.60;;;12.30;21.10;;;;;;5093815;28;20145;-68
2021/03/02 08:54:28;;;;;;;17.85;2.83;;;12.30;21.80;;;;;;5091564;28;20081;-67
2021/03/02 08:57:05;;;;;;;10.98;2.90;;;12.20;21.60;;;;;;5109835;27;20083;-67
2021/03/02 08:59:33;;;;;;;10.95;3.28;;;12.20;21.70;;;;;;5093734;28;20080;-67
2021/03/02 09:01:59;;;;;;;10.52;3.53;;;12.20;22.00;;;;;;5094598;28;20100;-68
2021/03/02 09:04:32;;;;;;;;;;;12.20;21.90;;;;;;5093955;28;20509;-70
2021/03/02 09:06:59;;;;;;;12.80;3.58;;;12.20;21.90;;;;;;5096876;28;19956;-67
2021/03/02 09:09:30;;;;;;;7.93;3.38;;;12.10;21.60;;;;;;5094765;28;20068;-68
2021/03/02 09:11:59;;;;;;;17.48;4.20;;;12.10;21.50;;;;;;5092407;28;20112;-68
2021/03/02 09:14:36;;;;;;;13.38;3.63;;;12.10;21.60;;;;;;5094983;28;20483;-69
2021/03/02 09:17:03;;;;;;;;;;;12.00;21.30;;;;;;5094778;28;20128;-68
2021/03/02 09:19:42;;;;;;;14.57;4.90;;;12.00;21.10;;;;;;5095251;28;19956;-68
2021/03/02 09:22:13;;;;;;;14.00;4.97;;;12.10;21.20;;;;;;5094676;28;20072;-68
2021/03/02 09:24:45;;;;;;;11.98;5.13;;;12.00;21.20;;;;;;5093258;28;20159;-67
2021/03/02 09:27:17;;;;;;;13.55;5.20;;;12.00;22.20;;;;;;5095100;28;20072;-68
2021/03/02 09:29:45;;;;;;;13.45;4.30;;;12.00;21.80;;;;;;5099372;28;20076;-68
2021/03/02 09:32:17;;;;;;;16.00;3.40;;;12.00;21.90;;;;;;5095984;28;20065;-67
2021/03/02 09:34:45;;;;;;;18.55;3.08;;;11.90;21.50;;;;;;5094140;28;20222;-68
2021/03/02 09:37:15;;;;;;;9.10;2.63;;;12.00;21.90;;;;;;5094445;28;20119;-68
2021/03/02 09:39:54;;;;;;;15.52;3.05;;;12.00;22.50;;;;;;5091072;28;20133;-67
2021/03/02 09:42:25;;;;;;;11.25;2.28;;;12.00;22.60;;;;;;5098157;28;20164;-67
2021/03/02 09:44:57;;;;;;;10.35;2.63;;;12.00;22.90;;;;;;5094252;28;20167;-66
2021/03/02 09:47:29;;;;;;;12.52;2.72;;;11.90;23.00;;;;;;5091439;28;20072;-67
2021/03/02 09:50:07;;;;;;;7.10;2.58;;;11.90;23.20;;;;;;5093621;28;20077;-68
2021/03/02 09:52:41;;;;;;;12.13;2.65;;;11.80;23.20;;;;;;5093252;28;20091;-71
2021/03/02 09:55:11;;;;;;;12.52;2.70;;;11.70;23.50;;;;;;5091960;28;20530;-68
2021/03/02 09:57:59;;;;;;;10.00;2.72;;;11.60;24.20;;;;;;5093298;28;20076;-68
2021/03/02 10:00:29;;;;;;;9.48;2.45;;;11.60;25.10;;;;;;5093776;28;20069;-68
2021/03/02 10:02:58;;;;;;;21.73;3.80;;;11.60;25.40;;;;;;5094855;28;20088;-68
2021/03/02 10:05:30;;;;;;;12.80;2.95;;;11.60;24.80;;;;;;5098635;28;20076;-67
2021/03/02 10:07:57;;;;;;;10.85;2.97;;;11.60;24.80;;;;;;5092776;28;20140;-67
2021/03/02 10:10:33;;;;;;;;;;;11.60;24.50;;;;;;5098246;28;20542;-67
2021/03/02 10:13:00;;;;;;;9.15;3.05;;;11.50;23.50;;;;;;5091235;28;19991;-67
2021/03/02 10:15:27;;;;;;;10.90;3.45;;;11.40;23.60;;;;;;5094971;28;20077;-67
2021/03/02 10:17:53;;;;;;;;;;;11.40;24.00;;;;;;5091326;28;20080;-68
2021/03/02 10:20:19;;;;;;;10.38;4.57;;;11.40;24.60;;;;;;5092796;28;19956;-68
2021/03/02 10:22:45;;;;;;;;;;;11.40;24.90;;;;;;5091106;28;20077;-68
2021/03/02 10:25:12;;;;;;;13.27;4.38;;;11.40;24.80;;;;;;5093397;28;19964;-67
2021/03/02 10:27:42;;;;;;;13.10;4.00;;;11.30;23.90;;;;;;5092162;28;20104;-67
2021/03/02 10:30:09;;;;;;;12.35;4.05;;;11.20;23.80;;;;;;5092835;28;20083;-68
2021/03/02 10:32:36;;;;;;;33.88;10.43;;;11.10;23.80;;;;;;5097338;28;20112;-67
2021/03/02 10:35:02;;;;;;;;;;;11.10;23.90;;;;;;5089455;28;20080;-67
2021/03/02 10:37:29;;;;;;;23.98;9.00;;;11.10;23.80;;;;;;5090409;28;20385;-67
2021/03/02 10:39:55;;;;;;;;;;;11.20;23.70;;;;;;5094774;28;20068;-67
2021/03/02 10:42:22;;;;;;;20.17;8.05;;;11.20;23.90;;;;;;5094541;28;19956;-66
2021/03/02 10:44:48;;;;;;;18.05;5.78;;;11.20;23.90;;;;;;5092915;28;20076;-68
2021/03/02 10:47:14;;;;;;;;;;;11.20;24.30;;;;;;5092824;28;20567;-68
2021/03/02 10:49:41;;;;;;;7.72;2.58;;;11.20;24.10;;;;;;5089795;28;19987;-68
2021/03/02 10:52:07;;;;;;;;;;;11.20;24.30;;;;;;5091484;28;20093;-67
2021/03/02 10:54:36;;;;;;;3.63;1.65;;;11.20;24.50;;;;;;5095042;28;19964;-68
2021/03/02 10:57:02;;;;;;;6.88;1.58;;;11.20;24.50;;;;;;5095627;28;20073;-68
2021/03/02 10:59:29;;;;;;;7.20;2.45;;;11.20;24.50;;;;;;5096432;28;20178;-68
2021/03/02 11:01:57;;;;;;;;;;;11.10;24.10;;;;;;5093075;28;20105;-68
2021/03/02 11:04:24;;;;;;;10.02;1.45;;;11.00;24.20;;;;;;5098079;28;20001;-67
2021/03/02 11:06:50;;;;;;;5.32;1.30;;;11.00;24.60;;;;;;5090981;28;20143;-67
2021/03/02 11:09:17;;;;;;;;;;;11.00;24.90;;;;;;5094044;28;20085;-68
2021/03/02 11:11:43;;;;;;;11.48;1.30;;;10.90;24.80;;;;;;5095923;28;19984;-67
2021/03/02 11:14:10;;;;;;;5.43;1.40;;;10.90;25.00;;;;;;5094479;28;20088;-67
2021/03/02 11:16:36;;;;;;;7.22;1.48;;;11.00;25.10;;;;;;5090673;28;20080;-67
2021/03/02 11:19:02;;;;;;;;;;;10.90;24.90;;;;;;5094254;28;20447;-67
2021/03/02 11:21:29;;;;;;;6.47;1.83;;;11.00;25.20;;;;;;5096877;28;20408;-67
2021/03/02 11:23:55;;;;;;;7.53;1.52;;;10.90;25.20;;;;;;5092150;28;20084;-68
2021/03/02 11:26:22;;;;;;;;;;;10.90;25.30;;;;;;5093498;28;20425;-68
2021/03/02 11:28:48;;;;;;;8.40;1.50;;;10.90;25.90;;;;;;5088798;28;20324;-68
2021/03/02 11:31:14;;;;;;;;;;;10.80;26.20;;;;;;5094420;28;20084;-68
2021/03/02 11:33:41;;;;;;;7.57;1.20;;;10.80;25.60;;;;;;5091592;28;19976;-67
2021/03/02 11:36:07;;;;;;;;;;;10.80;25.10;;;;;;5095131;28;20119;-67
2021/03/02 11:38:35;;;;;;;6.47;1.33;;;10.90;24.60;;;;;;5094742;28;19982;-67
2021/03/02 11:41:03;;;;;;;8.82;1.50;;;10.90;24.30;;;;;;5096739;28;20076;-67
2021/03/02 11:43:30;;;;;;;15.68;1.98;;;10.90;24.80;;;;;;5090178;28;20521;-67
2021/03/02 11:45:57;;;;;;;5.88;1.15;;;10.90;24.80;;;;;;5088895;28;20167;-68
2021/03/02 11:48:23;;;;;;;2.65;1.23;;;10.90;24.50;;;;;;5091772;28;20075;-67
2021/03/02 11:50:49;;;;;;;;;;;10.90;24.80;;;;;;5094953;28;20076;-67
2021/03/02 11:53:16;;;;;;;7.05;1.40;;;10.90;25.30;;;;;;5095908;28;20015;-67
2021/03/02 11:55:42;;;;;;;;;;;10.80;25.40;;;;;;5092142;28;20584;-67
2021/03/02 11:58:08;;;;;;;6.97;1.20;;;10.80;25.30;;;;;;5092544;28;19961;-67
2021/03/02 12:00:34;;;;;;;;;;;10.80;25.50;;;;;;5095001;28;20079;-68
2021/03/02 12:03:01;;;;;;;3.35;1.10;;;10.80;24.90;;;;;;5088075;28;19956;-68
2021/03/02 12:05:28;;;;;;;5.93;1.75;;;10.70;24.60;;;;;;5093070;28;20463;-68
2021/03/02 12:07:54;;;;;;;;;;;10.80;24.30;;;;;;5092768;28;20072;-68
2021/03/02 12:10:20;;;;;;;12.45;1.52;;;10.70;23.50;;;;;;5090664;28;20427;-68
2021/03/02 12:12:46;;;;;;;;;;;10.70;23.50;;;;;;5094482;28;20122;-67
2021/03/02 12:15:14;;;;;;;4.40;1.25;;;10.70;23.80;;;;;;5092112;28;20314;-67
2021/03/02 12:17:41;;;;;;;7.40;1.20;;;10.60;23.50;;;;;;5092067;28;20132;-67
2021/03/02 12:20:09;;;;;;;8.65;1.33;;;10.60;23.40;;;;;;5095180;28;20076;-67
2021/03/02 12:22:36;;;;;;;4.63;1.35;;;10.60;22.90;;;;;;5092932;28;20552;-67
2021/03/02 12:25:04;;;;;;;2.92;1.10;;;10.50;22.40;;;;;;5093829;28;20612;-67
2021/03/02 12:27:31;;;;;;;5.13;1.20;;;10.60;22.60;;;;;;5090643;28;20077;-67
2021/03/02 12:29:58;;;;;;;;;;;10.70;22.50;;;;;;5092466;28;20504;-67
2021/03/02 12:32:24;;;;;;;6.45;1.08;;;10.70;22.40;;;;;;5094212;28;20034;-67
2021/03/02 12:34:51;;;;;;;3.38;1.15;;;10.70;22.80;;;;;;5090237;28;20157;-67
2021/03/02 12:37:18;;;;;;;8.95;1.30;;;10.60;21.80;;;;;;5094049;28;20064;-67
2021/03/02 12:39:44;;;;;;;;;;;10.70;21.70;;;;;;5092398;28;20077;-67
2021/03/02 12:42:11;;;;;;;7.30;3.88;;;10.70;21.20;;;;;;5094343;28;19957;-67
2021/03/02 12:44:37;;;;;;;11.88;4.03;;;10.70;20.90;;;;;;5098234;28;20072;-67
2021/03/02 12:47:04;;;;;;;;;;;10.70;21.30;;;;;;5092947;28;20157;-67
2021/03/02 12:49:30;;;;;;;14.20;6.53;;;10.70;21.30;;;;;;5095583;28;19957;-68
2021/03/02 12:51:56;;;;;;;;;;;10.60;21.60;;;;;;5098847;28;20118;-67
2021/03/02 12:54:23;;;;;;;24.25;10.05;;;10.70;21.60;;;;;;5092232;28;20530;-67
2021/03/02 12:56:49;;;;;;;;;;;10.70;21.80;;;;;;5094096;28;20081;-67
2021/03/02 12:59:16;;;;;;;26.42;9.15;;;10.60;22.30;;;;;;5097190;28;19964;-67
2021/03/02 13:01:44;;;;;;;17.00;7.90;;;10.60;22.50;;;;;;5094555;28;20094;-67